createdAt,value
2022-12-03T00:01:12.817Z,100.00
2022-12-03T00:03:41.072Z,100.00
2022-12-03T00:06:08.551Z,100.00
2022-12-03T00:08:39.081Z,100.00
2022-12-03T00:11:09.249Z,100.00
2022-12-03T00:13:42.142Z,100.00
2022-12-03T00:16:12.203Z,100.00
2022-12-03T00:18:46.119Z,100.00
2022-12-03T00:21:16.166Z,100.00
2022-12-03T00:23:43.807Z,100.00
2022-12-03T00:26:19.602Z,100.00
2022-12-03T00:28:52.976Z,100.00
2022-12-03T00:31:23.753Z,100.00
2022-12-03T00:33:54.563Z,100.00
2022-12-03T00:36:25.206Z,100.00
2022-12-03T00:38:55.561Z,100.00
2022-12-03T00:41:25.634Z,100.00
2022-12-03T00:43:56.615Z,100.00
2022-12-03T00:46:27.558Z,100.00
2022-12-03T00:48:55.163Z,100.00
2022-12-03T00:51:28.211Z,100.00
2022-12-03T00:53:58.425Z,100.00
2022-12-03T00:56:28.446Z,100.00
2022-12-03T00:58:58.832Z,100.00
2022-12-03T01:01:26.272Z,100.00
2022-12-03T01:03:59.468Z,100.00
2022-12-03T01:06:29.389Z,100.00
2022-12-03T01:08:56.594Z,100.00
2022-12-03T01:11:23.837Z,100.00
2022-12-03T01:13:54.827Z,100.00
2022-12-03T01:16:27.321Z,100.00
2022-12-03T01:18:54.555Z,100.00
2022-12-03T01:21:24.626Z,100.00
2022-12-03T01:23:52.046Z,100.00
2022-12-03T01:26:23.268Z,100.00
2022-12-03T01:28:53.296Z,100.00
2022-12-03T01:31:23.206Z,100.00
2022-12-03T01:33:54.301Z,100.00
2022-12-03T01:36:21.586Z,100.00
2022-12-03T01:38:48.903Z,100.00
2022-12-03T01:41:23.656Z,100.00
2022-12-03T01:43:53.297Z,100.00
2022-12-03T01:46:25.430Z,100.00
2022-12-03T01:48:55.939Z,100.00
2022-12-03T01:51:25.951Z,100.00
2022-12-03T01:53:57.816Z,100.00
2022-12-03T01:56:28.054Z,100.00
2022-12-03T01:58:59.138Z,100.00
2022-12-03T02:01:27.285Z,100.00
2022-12-03T02:03:54.573Z,100.00
2022-12-03T02:06:23.985Z,100.00
2022-12-03T02:08:54.984Z,100.00
2022-12-03T02:11:28.032Z,100.00
2022-12-03T02:14:10.752Z,100.00
2022-12-03T02:16:43.050Z,100.00
2022-12-03T02:19:29.273Z,100.00
2022-12-03T02:22:19.639Z,100.00
2022-12-03T02:25:21.073Z,100.00
2022-12-03T02:27:55.662Z,100.00
2022-12-03T02:30:25.224Z,100.00
2022-12-03T02:32:54.083Z,100.00
2022-12-03T02:35:24.052Z,100.00
2022-12-03T02:38:19.332Z,100.00
2022-12-03T02:41:03.743Z,100.00
2022-12-03T02:43:41.159Z,100.00
2022-12-03T02:46:17.676Z,100.00
2022-12-03T02:48:54.424Z,100.00
2022-12-03T02:51:32.201Z,100.00
2022-12-03T02:54:09.269Z,100.00
2022-12-03T02:56:42.981Z,100.00
2022-12-03T02:59:24.672Z,100.00
2022-12-03T03:01:58.557Z,100.00
2022-12-03T03:04:31.765Z,100.00
2022-12-03T03:07:02.736Z,100.00
2022-12-03T03:09:30.315Z,100.00
2022-12-03T03:12:00.197Z,100.00
2022-12-03T03:14:32.745Z,100.00
2022-12-03T03:17:10.417Z,100.00
2022-12-03T03:19:46.992Z,100.00
2022-12-03T03:22:24.273Z,100.00
2022-12-03T03:25:01.517Z,100.00
2022-12-03T03:27:41.470Z,100.00
2022-12-03T03:30:13.234Z,100.00
2022-12-03T03:32:52.560Z,100.00
2022-12-03T03:35:30.092Z,100.00
2022-12-03T03:38:00.861Z,100.00
2022-12-03T03:40:34.818Z,100.00
2022-12-03T03:43:05.924Z,100.00
2022-12-03T03:45:37.807Z,100.00
2022-12-03T03:48:12.247Z,100.00
2022-12-03T03:50:41.793Z,100.00
2022-12-03T03:53:15.541Z,100.00
2022-12-03T03:55:49.329Z,100.00
2022-12-03T03:58:22.417Z,100.00
2022-12-03T04:00:53.438Z,100.00
2022-12-03T04:03:27.397Z,100.00
2022-12-03T04:06:00.209Z,100.00
2022-12-03T04:08:36.689Z,100.00
2022-12-03T04:11:13.287Z,100.00
2022-12-03T04:13:46.863Z,100.00
2022-12-03T04:16:21.276Z,100.00
2022-12-03T04:18:57.258Z,100.00
2022-12-03T04:21:37.780Z,100.00
2022-12-03T04:24:09.211Z,100.00
2022-12-03T04:26:42.310Z,100.00
2022-12-03T04:29:20.385Z,100.00
2022-12-03T04:31:54.854Z,100.00
2022-12-03T04:34:31.894Z,100.00
2022-12-03T04:37:00.208Z,100.00
2022-12-03T04:39:39.216Z,100.00
2022-12-03T04:42:16.484Z,100.00
2022-12-03T04:44:49.558Z,100.00
2022-12-03T04:47:27.173Z,100.00
2022-12-03T04:50:04.569Z,100.00
2022-12-03T04:52:43.418Z,100.00
2022-12-03T04:55:22.971Z,100.00
2022-12-03T04:57:54.170Z,100.00
2022-12-03T05:00:27.613Z,100.00
2022-12-03T05:02:59.343Z,100.00
2022-12-03T05:05:32.455Z,100.00
2022-12-03T05:08:06.835Z,100.00
2022-12-03T05:11:03.197Z,100.00
2022-12-03T05:13:40.174Z,100.00
2022-12-03T05:16:12.347Z,100.00
2022-12-03T05:18:45.527Z,100.00
2022-12-03T05:21:16.172Z,100.00
2022-12-03T05:23:50.515Z,100.00
2022-12-03T05:26:26.966Z,100.00
2022-12-03T05:29:04.127Z,100.00
2022-12-03T05:31:41.667Z,100.00
2022-12-03T05:34:18.600Z,100.00
2022-12-03T05:36:55.297Z,100.00
2022-12-03T05:39:34.426Z,100.00
2022-12-03T05:42:05.029Z,100.00
2022-12-03T05:44:39.199Z,100.00
2022-12-03T05:47:12.612Z,100.00
2022-12-03T05:49:49.059Z,100.00
2022-12-03T05:52:21.830Z,100.00
2022-12-03T05:55:04.425Z,100.00
2022-12-03T05:57:39.081Z,100.00
2022-12-03T06:00:15.806Z,100.00
2022-12-03T06:02:48.917Z,100.00
2022-12-03T06:05:23.163Z,100.00
2022-12-03T06:07:57.249Z,100.00
2022-12-03T06:10:32.203Z,100.00
2022-12-03T06:13:11.237Z,100.00
2022-12-03T06:15:48.859Z,100.00
2022-12-03T06:18:23.472Z,100.00
2022-12-03T06:21:00.123Z,93.28
2022-12-03T06:23:36.271Z,93.35
2022-12-03T06:26:13.502Z,98.44
2022-12-03T06:28:49.707Z,100.00
2022-12-03T06:31:28.183Z,100.00
2022-12-03T06:33:59.321Z,100.00
2022-12-03T06:36:34.143Z,100.00
2022-12-03T06:39:07.906Z,100.00
2022-12-03T06:41:37.505Z,100.00
2022-12-03T06:44:12.775Z,100.00
2022-12-03T06:46:46.960Z,100.00
2022-12-03T06:49:21.501Z,100.00
2022-12-03T06:51:53.152Z,100.00
2022-12-03T06:54:32.491Z,91.87
2022-12-03T06:57:04.148Z,99.14
2022-12-03T06:59:40.054Z,100.00
2022-12-03T07:02:13.812Z,100.00
2022-12-03T07:04:53.175Z,100.00
2022-12-03T07:07:26.676Z,100.00
2022-12-03T07:09:54.234Z,100.00
2022-12-03T07:12:24.722Z,100.00
2022-12-03T07:14:59.708Z,100.00
2022-12-03T07:17:30.494Z,100.00
2022-12-03T07:20:09.242Z,100.00
2022-12-03T07:22:45.049Z,100.00
2022-12-03T07:25:23.919Z,100.00
2022-12-03T07:27:55.752Z,100.00
2022-12-03T07:30:28.926Z,100.00
2022-12-03T07:33:03.357Z,100.00
2022-12-03T07:35:34.426Z,100.00
2022-12-03T07:38:09.757Z,100.00
2022-12-03T07:40:46.416Z,100.00
2022-12-03T07:43:17.965Z,100.00
2022-12-03T07:45:45.031Z,100.00
2022-12-03T07:48:18.447Z,100.00
2022-12-03T07:50:48.322Z,100.00
2022-12-03T07:53:19.068Z,100.00
2022-12-03T07:55:49.835Z,100.00
2022-12-03T07:58:22.384Z,100.00
2022-12-03T08:00:52.251Z,100.00
2022-12-03T08:03:24.094Z,100.00
2022-12-03T08:05:57.675Z,100.00
2022-12-03T08:08:25.322Z,100.00
2022-12-03T08:10:55.636Z,100.00
2022-12-03T08:13:28.448Z,100.00
2022-12-03T08:15:59.010Z,100.00
2022-12-03T08:18:29.721Z,100.00
2022-12-03T08:21:02.892Z,100.00
2022-12-03T08:23:34.563Z,100.00
2022-12-03T08:26:17.510Z,100.00
2022-12-03T08:28:48.168Z,100.00
2022-12-03T08:31:30.838Z,100.00
2022-12-03T08:34:40.132Z,97.60
2022-12-03T08:37:18.381Z,91.10
2022-12-03T08:39:54.919Z,88.68
2022-12-03T08:42:26.577Z,94.84
2022-12-03T08:45:00.180Z,97.62
2022-12-03T08:47:33.398Z,100.00
2022-12-03T08:50:20.178Z,95.44
2022-12-03T08:52:53.144Z,97.90
2022-12-03T08:55:38.145Z,100.00
2022-12-03T08:58:28.256Z,100.00
2022-12-03T09:01:05.854Z,87.49
2022-12-03T09:03:39.672Z,84.03
2022-12-03T09:06:10.155Z,96.92
2022-12-03T09:08:44.670Z,100.00
2022-12-03T09:11:18.131Z,100.00
2022-12-03T09:13:46.307Z,100.00
2022-12-03T09:16:21.884Z,100.00
2022-12-03T09:18:55.503Z,100.00
2022-12-03T09:21:25.744Z,100.00
2022-12-03T09:24:02.239Z,100.00
2022-12-03T09:26:33.735Z,92.35
2022-12-03T09:29:12.291Z,92.42
2022-12-03T09:31:41.244Z,83.75
2022-12-03T09:34:14.413Z,93.42
2022-12-03T09:36:52.735Z,96.47
2022-12-03T09:39:20.107Z,99.75
2022-12-03T09:41:51.383Z,100.00
2022-12-03T09:44:29.413Z,100.00
2022-12-03T09:47:04.093Z,100.00
2022-12-03T09:49:38.906Z,100.00
2022-12-03T09:52:13.431Z,100.00
2022-12-03T09:54:46.853Z,100.00
2022-12-03T09:57:21.299Z,100.00
2022-12-03T09:59:52.733Z,100.00
2022-12-03T10:02:27.778Z,100.00
2022-12-03T10:04:55.976Z,100.00
2022-12-03T10:07:30.209Z,100.00
2022-12-03T10:09:58.155Z,100.00
2022-12-03T10:12:31.302Z,100.00
2022-12-03T10:15:01.808Z,100.00
2022-12-03T10:17:35.895Z,96.19
2022-12-03T10:20:04.509Z,97.95
2022-12-03T10:22:34.860Z,97.69
2022-12-03T10:25:12.638Z,98.92
2022-12-03T10:27:41.271Z,99.56
2022-12-03T10:30:19.115Z,100.00
2022-12-03T10:32:49.607Z,100.00
2022-12-03T10:35:21.303Z,100.00
2022-12-03T10:37:57.261Z,100.00
2022-12-03T10:40:30.044Z,100.00
2022-12-03T10:43:32.974Z,100.00
2022-12-03T10:46:04.465Z,100.00
2022-12-03T10:48:37.911Z,100.00
2022-12-03T10:51:27.760Z,100.00
2022-12-03T10:53:58.071Z,100.00
2022-12-03T10:56:28.800Z,100.00
2022-12-03T10:58:59.275Z,100.00
2022-12-03T11:01:30.635Z,100.00
2022-12-03T11:04:05.370Z,100.00
2022-12-03T11:06:33.304Z,100.00
2022-12-03T11:09:06.955Z,100.00
2022-12-03T11:11:38.728Z,100.00
2022-12-03T11:14:15.756Z,93.88
2022-12-03T11:16:52.832Z,96.98
2022-12-03T11:19:40.123Z,97.45
2022-12-03T11:22:17.564Z,100.00
2022-12-03T11:25:23.095Z,100.00
2022-12-03T11:28:09.102Z,100.00
2022-12-03T11:30:51.868Z,100.00
2022-12-03T11:33:33.888Z,100.00
2022-12-03T11:36:04.871Z,100.00
2022-12-03T11:38:38.203Z,100.00
2022-12-03T11:41:18.848Z,100.00
2022-12-03T11:43:52.198Z,100.00
2022-12-03T11:46:36.044Z,100.00
2022-12-03T11:49:35.686Z,100.00
2022-12-03T11:52:20.938Z,100.00
2022-12-03T11:55:18.210Z,100.00
2022-12-03T11:58:01.153Z,100.00
2022-12-03T12:00:34.978Z,100.00
2022-12-03T12:03:05.650Z,100.00
2022-12-03T12:05:36.058Z,100.00
2022-12-03T12:08:23.427Z,100.00
2022-12-03T12:10:51.770Z,100.00
2022-12-03T12:13:48.926Z,100.00
2022-12-03T12:16:39.544Z,100.00
2022-12-03T12:19:30.494Z,100.00
2022-12-03T12:22:13.026Z,100.00
2022-12-03T12:24:47.478Z,100.00
2022-12-03T12:27:31.931Z,100.00
2022-12-03T12:30:13.635Z,100.00
2022-12-03T12:32:46.141Z,100.00
2022-12-03T12:35:23.476Z,100.00
2022-12-03T12:37:59.103Z,100.00
2022-12-03T12:40:31.706Z,100.00
2022-12-03T12:43:14.218Z,100.00
2022-12-03T12:45:44.373Z,100.00
2022-12-03T12:48:14.483Z,100.00
2022-12-03T12:50:47.237Z,100.00
2022-12-03T12:53:33.908Z,100.00
2022-12-03T12:56:31.674Z,100.00
2022-12-03T12:59:12.916Z,100.00
2022-12-03T13:01:41.303Z,100.00
2022-12-03T13:04:15.167Z,100.00
2022-12-03T13:06:46.656Z,100.00
2022-12-03T13:09:21.566Z,100.00
2022-12-03T13:11:55.719Z,100.00
2022-12-03T13:14:31.280Z,100.00
2022-12-03T13:17:01.671Z,100.00
2022-12-03T13:19:48.258Z,100.00
2022-12-03T13:22:25.185Z,100.00
2022-12-03T13:24:56.003Z,100.00
2022-12-03T13:27:29.368Z,100.00
2022-12-03T13:30:07.745Z,100.00
2022-12-03T13:32:42.040Z,100.00
2022-12-03T13:35:30.871Z,100.00
2022-12-03T13:38:13.603Z,100.00
2022-12-03T13:40:45.860Z,100.00
2022-12-03T13:43:18.713Z,100.00
2022-12-03T13:45:52.600Z,100.00
2022-12-03T13:48:29.076Z,100.00
2022-12-03T13:51:01.370Z,100.00
2022-12-03T13:53:40.934Z,100.00
2022-12-03T13:56:20.572Z,100.00
2022-12-03T13:58:50.914Z,100.00
2022-12-03T14:01:18.214Z,100.00
2022-12-03T14:03:47.083Z,100.00
2022-12-03T14:06:21.003Z,100.00
2022-12-03T14:08:51.245Z,100.00
2022-12-03T14:11:18.516Z,100.00
2022-12-03T14:14:00.250Z,100.00
2022-12-03T14:16:42.569Z,100.00
2022-12-03T14:19:13.072Z,100.00
2022-12-03T14:21:47.389Z,100.00
2022-12-03T14:24:15.257Z,100.00
2022-12-03T14:26:48.840Z,100.00
2022-12-03T14:29:22.086Z,100.00
2022-12-03T14:31:58.957Z,100.00
2022-12-03T14:34:29.322Z,100.00
2022-12-03T14:37:02.175Z,100.00
2022-12-03T14:39:33.200Z,100.00
2022-12-03T14:42:03.769Z,100.00
2022-12-03T14:44:34.723Z,100.00
2022-12-03T14:47:05.446Z,100.00
2022-12-03T14:49:35.758Z,100.00
2022-12-03T14:52:12.203Z,100.00
2022-12-03T14:54:44.062Z,100.00
2022-12-03T14:57:21.777Z,100.00
2022-12-03T14:59:51.787Z,100.00
2022-12-03T15:02:24.960Z,100.00
2022-12-03T15:04:57.895Z,100.00
2022-12-03T15:07:28.924Z,100.00
2022-12-03T15:10:00.022Z,100.00
2022-12-03T15:12:32.468Z,100.00
2022-12-03T15:15:03.024Z,100.00
2022-12-03T15:17:33.728Z,100.00
2022-12-03T15:20:04.600Z,100.00
2022-12-03T15:22:32.237Z,100.00
2022-12-03T15:25:06.148Z,100.00
2022-12-03T15:27:37.477Z,100.00
2022-12-03T15:30:11.685Z,100.00
2022-12-03T15:32:45.133Z,100.00
2022-12-03T15:35:15.120Z,100.00
2022-12-03T15:37:43.087Z,100.00
2022-12-03T15:40:14.622Z,100.00
2022-12-03T15:42:45.377Z,100.00
2022-12-03T15:45:17.237Z,100.00
2022-12-03T15:47:47.767Z,100.00
2022-12-03T15:50:15.813Z,100.00
2022-12-03T15:52:46.761Z,100.00
2022-12-03T15:55:19.811Z,100.00
2022-12-03T15:57:53.461Z,100.00
2022-12-03T16:00:21.021Z,100.00
2022-12-03T16:02:53.134Z,100.00
2022-12-03T16:05:24.161Z,100.00
2022-12-03T16:07:54.780Z,100.00
2022-12-03T16:10:25.611Z,100.00
2022-12-03T16:12:53.688Z,100.00
2022-12-03T16:15:27.313Z,100.00
2022-12-03T16:18:00.952Z,100.00
2022-12-03T16:20:31.152Z,100.00
2022-12-03T16:23:00.302Z,100.00
2022-12-03T16:25:33.980Z,100.00
2022-12-03T16:28:10.839Z,100.00
2022-12-03T16:30:38.650Z,100.00
2022-12-03T16:33:12.252Z,100.00
2022-12-03T16:35:39.395Z,100.00
2022-12-03T16:38:07.097Z,100.00
2022-12-03T16:40:34.300Z,100.00
2022-12-03T16:43:05.707Z,100.00
2022-12-03T16:45:39.823Z,100.00
2022-12-03T16:48:10.077Z,100.00
2022-12-03T16:50:41.078Z,100.00
2022-12-03T16:53:11.576Z,100.00
2022-12-03T16:55:44.621Z,100.00
2022-12-03T16:58:17.289Z,100.00
2022-12-03T17:00:44.880Z,100.00
2022-12-03T17:03:24.922Z,100.00
2022-12-03T17:05:59.558Z,100.00
2022-12-03T17:08:29.055Z,100.00
2022-12-03T17:11:00.128Z,100.00
2022-12-03T17:13:31.065Z,100.00
2022-12-03T17:16:02.751Z,100.00
2022-12-03T17:18:30.205Z,100.00
2022-12-03T17:21:06.641Z,100.00
2022-12-03T17:23:36.370Z,100.00
2022-12-03T17:26:07.497Z,100.00
2022-12-03T17:28:34.757Z,100.00
2022-12-03T17:31:12.035Z,100.00
2022-12-03T17:33:42.775Z,100.00
2022-12-03T17:36:10.779Z,100.00
2022-12-03T17:38:43.728Z,100.00
2022-12-03T17:41:11.387Z,100.00
2022-12-03T17:43:47.942Z,100.00
2022-12-03T17:46:16.002Z,100.00
2022-12-03T17:48:53.104Z,100.00
2022-12-03T17:51:27.724Z,100.00
2022-12-03T17:53:59.035Z,100.00
2022-12-03T17:56:31.634Z,100.00
2022-12-03T17:59:02.700Z,100.00
2022-12-03T18:01:30.509Z,100.00
2022-12-03T18:04:08.058Z,100.00
2022-12-03T18:06:39.125Z,100.00
2022-12-03T18:09:09.619Z,100.00
2022-12-03T18:11:42.716Z,100.00
2022-12-03T18:14:19.874Z,100.00
2022-12-03T18:16:52.368Z,100.00
2022-12-03T18:19:32.266Z,100.00
2022-12-03T18:22:06.068Z,100.00
2022-12-03T18:24:47.542Z,100.00
2022-12-03T18:27:20.694Z,100.00
2022-12-03T18:29:55.438Z,100.00
2022-12-03T18:32:32.209Z,100.00
2022-12-03T18:35:06.319Z,100.00
2022-12-03T18:37:40.425Z,100.00
2022-12-03T18:40:30.846Z,100.00
2022-12-03T18:43:11.902Z,100.00
2022-12-03T18:45:56.911Z,100.00
2022-12-03T18:48:30.942Z,100.00
2022-12-03T18:51:02.297Z,100.00
2022-12-03T18:53:39.820Z,100.00
2022-12-03T18:56:15.916Z,100.00
2022-12-03T18:58:53.807Z,100.00
2022-12-03T19:01:26.819Z,100.00
2022-12-03T19:04:01.147Z,100.00
2022-12-03T19:06:38.522Z,100.00
2022-12-03T19:09:12.179Z,100.00
2022-12-03T19:11:48.724Z,100.00
2022-12-03T19:14:20.295Z,100.00
2022-12-03T19:17:00.880Z,100.00
2022-12-03T19:19:35.088Z,100.00
2022-12-03T19:22:15.197Z,100.00
2022-12-03T19:24:48.809Z,100.00
2022-12-03T19:27:28.974Z,100.00
2022-12-03T19:30:01.077Z,100.00
2022-12-03T19:32:35.605Z,100.00
2022-12-03T19:35:14.949Z,100.00
2022-12-03T19:40:32.982Z,100.00
2022-12-03T19:43:02.918Z,100.00
2022-12-03T19:45:41.553Z,100.00
2022-12-03T19:48:15.522Z,100.00
2022-12-03T19:51:07.825Z,100.00
2022-12-03T19:53:43.899Z,100.00
2022-12-03T19:56:24.407Z,100.00
2022-12-03T19:58:59.151Z,100.00
2022-12-03T20:01:36.654Z,100.00
2022-12-03T20:04:07.618Z,100.00
2022-12-03T20:06:39.077Z,100.00
2022-12-03T20:09:16.063Z,100.00
2022-12-03T20:11:52.233Z,100.00
2022-12-03T20:14:25.739Z,100.00
2022-12-03T20:16:53.064Z,100.00
2022-12-03T20:19:24.005Z,100.00
2022-12-03T20:21:56.262Z,100.00
2022-12-03T20:24:34.917Z,100.00
2022-12-03T20:27:10.962Z,100.00
2022-12-03T20:29:49.355Z,100.00
2022-12-03T20:32:23.219Z,100.00
2022-12-03T20:34:54.257Z,100.00
2022-12-03T20:37:31.195Z,100.00
2022-12-03T20:40:11.180Z,100.00
2022-12-03T20:42:48.051Z,100.00
2022-12-03T20:45:21.219Z,100.00
2022-12-03T20:47:51.594Z,100.00
2022-12-03T20:50:25.507Z,100.00
2022-12-03T20:53:23.098Z,100.00
2022-12-03T20:56:00.755Z,100.00
2022-12-03T20:58:35.619Z,100.00
2022-12-03T21:01:27.495Z,100.00
2022-12-03T21:04:06.862Z,100.00
2022-12-03T21:06:46.339Z,100.00
2022-12-03T21:09:24.219Z,100.00
2022-12-03T21:11:57.204Z,100.00
2022-12-03T21:14:32.838Z,100.00
2022-12-03T21:17:12.280Z,100.00
2022-12-03T21:19:47.896Z,100.00
2022-12-03T21:22:26.696Z,100.00
2022-12-03T21:24:59.866Z,100.00
2022-12-03T21:27:40.507Z,100.00
2022-12-03T21:30:17.846Z,100.00
2022-12-03T21:32:48.191Z,100.00
2022-12-03T21:35:25.021Z,100.00
2022-12-03T21:38:04.867Z,100.00
2022-12-03T21:40:36.369Z,100.00
2022-12-03T21:43:08.019Z,100.00
2022-12-03T21:45:42.258Z,100.00
2022-12-03T21:48:13.812Z,100.00
2022-12-03T21:50:45.324Z,100.00
2022-12-03T21:53:16.130Z,100.00
2022-12-03T21:55:52.994Z,100.00
2022-12-03T21:58:27.995Z,100.00
2022-12-03T22:01:05.353Z,100.00
2022-12-03T22:03:34.323Z,100.00
2022-12-03T22:06:09.798Z,100.00
2022-12-03T22:08:43.231Z,100.00
2022-12-03T22:11:25.738Z,100.00
2022-12-03T22:13:59.874Z,100.00
2022-12-03T22:16:35.117Z,100.00
2022-12-03T22:19:08.835Z,100.00
2022-12-03T22:21:41.727Z,100.00
2022-12-03T22:24:13.809Z,100.00
2022-12-03T22:26:47.241Z,100.00
2022-12-03T22:29:23.958Z,100.00
2022-12-03T22:31:57.691Z,100.00
2022-12-03T22:34:31.207Z,100.00
2022-12-03T22:37:08.787Z,100.00
2022-12-03T22:39:39.148Z,100.00
2022-12-03T22:42:12.811Z,100.00
2022-12-03T22:44:54.050Z,100.00
2022-12-03T22:47:29.151Z,100.00
2022-12-03T22:50:03.447Z,100.00
2022-12-03T22:52:37.152Z,100.00
2022-12-03T22:55:25.487Z,100.00
2022-12-03T22:58:02.796Z,100.00
2022-12-03T23:00:44.616Z,100.00
2022-12-03T23:03:18.694Z,100.00
2022-12-03T23:05:56.651Z,100.00
2022-12-03T23:08:43.191Z,100.00
2022-12-03T23:11:17.840Z,100.00
2022-12-03T23:13:49.708Z,100.00
2022-12-03T23:16:25.668Z,100.00
2022-12-03T23:18:57.243Z,100.00
2022-12-03T23:21:34.314Z,100.00
2022-12-03T23:24:11.611Z,100.00
2022-12-03T23:26:54.359Z,100.00
2022-12-03T23:29:26.173Z,100.00
2022-12-03T23:31:59.903Z,100.00
2022-12-03T23:34:31.622Z,100.00
2022-12-03T23:37:01.681Z,100.00
2022-12-03T23:39:38.603Z,100.00
2022-12-03T23:42:14.465Z,100.00
2022-12-03T23:44:48.087Z,100.00
2022-12-03T23:47:21.640Z,100.00
2022-12-03T23:49:53.191Z,100.00
2022-12-03T23:52:26.646Z,100.00
2022-12-03T23:54:58.990Z,100.00
2022-12-03T23:57:29.958Z,100.00
